Time;durP1;ratioP1;P1;durP2;ratioP2;P2;SDS_P1;SDS_P2;PMS_P1;PMS_P2;Temp;Humidity;BMP_temperature;BMP_pressure;BME280_temperature;BME280_humidity;BME280_pressure;Samples;Min_cycle;Max_cycle;Signal;HPM_P1;HPM_P2
2023/12/10 00:01:18;;;;;;;17.50;2.40;;;9.20;80.90;;;;;;5066706;28;20068;-80
2023/12/10 00:03:45;;;;;;;21.42;2.88;;;9.20;80.80;;;;;;5066477;28;20276;-80
2023/12/10 00:06:12;;;;;;;19.83;2.95;;;9.20;80.60;;;;;;5066568;28;20047;-80
2023/12/10 00:08:43;;;;;;;16.10;2.95;;;9.20;80.50;;;;;;5066434;28;20132;-80
2023/12/10 00:11:11;;;;;;;18.20;2.72;;;9.10;80.50;;;;;;5066718;28;20068;-80
2023/12/10 00:13:40;;;;;;;19.30;3.23;;;9.20;80.10;;;;;;5067773;28;20053;-80
2023/12/10 00:16:07;;;;;;;17.13;3.08;;;9.20;80.00;;;;;;5066401;28;20272;-80
2023/12/10 00:18:34;;;;;;;21.05;3.40;;;9.20;79.40;;;;;;5066255;28;20977;-80
2023/12/10 00:21:01;;;;;;;18.75;2.63;;;9.20;79.20;;;;;;5067830;28;20503;-80
2023/12/10 00:23:29;;;;;;;23.65;3.33;;;9.20;79.40;;;;;;5066453;28;20056;-80
2023/12/10 00:25:56;;;;;;;23.67;2.90;;;9.20;79.20;;;;;;5083452;28;20153;-80
2023/12/10 00:28:23;;;;;;;18.42;2.40;;;9.20;79.20;;;;;;5082805;28;20255;-80
2023/12/10 00:30:51;;;;;;;22.25;3.10;;;9.20;78.80;;;;;;5066532;28;20044;-81
2023/12/10 00:33:19;;;;;;;22.45;3.53;;;9.20;78.70;;;;;;5083074;28;20053;-81
2023/12/10 00:35:46;;;;;;;20.98;3.63;;;9.20;78.40;;;;;;5066032;28;20060;-80
2023/12/10 00:38:13;;;;;;;17.27;2.73;;;9.20;78.30;;;;;;5067523;28;20511;-80
2023/12/10 00:40:40;;;;;;;15.43;2.53;;;9.20;78.40;;;;;;5049593;28;20290;-80
2023/12/10 00:43:07;;;;;;;20.95;2.83;;;9.20;78.60;;;;;;5069866;28;20146;-80
2023/12/10 00:45:35;;;;;;;22.60;3.17;;;9.20;78.70;;;;;;5074217;28;20052;-80
2023/12/10 00:48:04;;;;;;;21.77;3.67;;;9.20;78.70;;;;;;5074312;28;20053;-80
2023/12/10 00:50:31;;;;;;;14.13;1.90;;;9.20;78.40;;;;;;5072771;28;20053;-80
2023/12/10 00:52:58;;;;;;;15.75;2.17;;;9.20;77.90;;;;;;5073029;28;20276;-80
2023/12/10 00:55:27;;;;;;;15.38;1.85;;;9.20;77.70;;;;;;5089579;28;20056;-80
2023/12/10 00:57:54;;;;;;;16.63;2.67;;;9.20;77.70;;;;;;5072285;28;20428;-80
2023/12/10 01:00:21;;;;;;;15.52;3.20;;;9.20;78.00;;;;;;5072342;28;20052;-80
2023/12/10 01:02:49;;;;;;;16.07;2.50;;;9.20;78.20;;;;;;5073931;28;20053;-80
2023/12/10 01:05:18;;;;;;;14.35;2.00;;;9.20;78.70;;;;;;5055835;28;20790;-80
2023/12/10 01:07:45;;;;;;;11.65;1.25;;;9.10;79.20;;;;;;5072640;28;20044;-80
2023/12/10 01:10:13;;;;;;;18.48;3.03;;;9.10;79.70;;;;;;5073679;28;20053;-80
2023/12/10 01:12:40;;;;;;;16.67;2.20;;;9.10;80.10;;;;;;5089393;28;21005;-81
2023/12/10 01:15:08;;;;;;;14.87;2.33;;;9.00;80.50;;;;;;5076321;28;20048;-81
2023/12/10 01:17:36;;;;;;;17.98;2.78;;;9.00;80.70;;;;;;5072068;28;20248;-81
2023/12/10 01:20:03;;;;;;;13.52;2.05;;;9.00;81.00;;;;;;5073352;28;20064;-81
2023/12/10 01:22:31;;;;;;;16.30;2.20;;;9.00;81.20;;;;;;5072824;28;20140;-81
2023/12/10 01:25:00;;;;;;;14.48;2.20;;;9.00;81.50;;;;;;5071666;28;20045;-81
2023/12/10 01:27:27;;;;;;;18.77;2.53;;;9.00;81.80;;;;;;5071709;28;20142;-81
2023/12/10 01:29:53;;;;;;;16.20;2.45;;;8.90;82.20;;;;;;5071501;28;20369;-81
2023/12/10 01:32:21;;;;;;;17.58;2.78;;;8.90;82.40;;;;;;5071384;28;20041;-81
2023/12/10 01:34:48;;;;;;;18.55;2.80;;;8.90;82.60;;;;;;5073182;28;20513;-81
2023/12/10 01:37:15;;;;;;;14.52;2.38;;;8.80;83.00;;;;;;5071683;28;20523;-81
2023/12/10 01:39:43;;;;;;;17.30;2.50;;;8.80;83.00;;;;;;5072893;28;20526;-81
2023/12/10 01:42:10;;;;;;;20.83;2.67;;;8.80;83.40;;;;;;5072882;28;20565;-80
2023/12/10 01:44:36;;;;;;;18.83;3.25;;;8.80;83.60;;;;;;5072854;28;20056;-80
2023/12/10 01:47:05;;;;;;;15.30;2.42;;;8.80;83.60;;;;;;5072009;28;20234;-80
2023/12/10 01:49:32;;;;;;;15.18;2.47;;;8.80;84.00;;;;;;5072424;28;20493;-80
2023/12/10 01:51:59;;;;;;;16.67;2.57;;;8.80;84.10;;;;;;5071585;28;20053;-80
2023/12/10 01:54:26;;;;;;;19.35;2.92;;;8.80;84.20;;;;;;5068378;28;20299;-81
2023/12/10 01:56:56;;;;;;;17.40;2.70;;;8.70;84.40;;;;;;5069875;28;20052;-80
2023/12/10 01:59:23;;;;;;;18.95;2.72;;;8.70;84.50;;;;;;5092688;28;20293;-84
2023/12/10 02:01:50;;;;;;;18.58;2.35;;;8.70;84.70;;;;;;5067305;28;20110;-80
2023/12/10 02:04:18;;;;;;;16.20;2.73;;;8.70;84.80;;;;;;5084811;28;20049;-80
2023/12/10 02:06:47;;;;;;;18.58;2.78;;;8.60;85.00;;;;;;5068441;28;20266;-80
2023/12/10 02:09:18;;;;;;;20.73;2.92;;;8.60;85.00;;;;;;5067242;28;20579;-80
2023/12/10 02:11:45;;;;;;;14.27;1.75;;;8.60;85.20;;;;;;5067552;28;20474;-80
2023/12/10 02:14:14;;;;;;;15.10;2.30;;;8.60;85.30;;;;;;5085157;28;20053;-80
2023/12/10 02:16:41;;;;;;;20.67;3.37;;;8.60;85.20;;;;;;5067564;28;20055;-80
2023/12/10 02:19:07;;;;;;;22.75;3.20;;;8.70;85.20;;;;;;5067510;28;20848;-80
2023/12/10 02:21:36;;;;;;;25.05;3.30;;;8.60;85.30;;;;;;5067861;28;20049;-80
2023/12/10 02:24:05;;;;;;;17.48;2.58;;;8.60;85.30;;;;;;5067511;28;20225;-80
2023/12/10 02:26:34;;;;;;;20.20;3.30;;;8.60;85.50;;;;;;5069012;28;20075;-80
2023/12/10 02:29:01;;;;;;;18.70;3.00;;;8.60;85.70;;;;;;5067919;28;20092;-80
2023/12/10 02:31:28;;;;;;;14.75;2.10;;;8.60;85.50;;;;;;5068803;28;20264;-80
2023/12/10 02:33:55;;;;;;;21.17;2.55;;;8.60;85.70;;;;;;5067285;28;20045;-80
2023/12/10 02:36:22;;;;;;;24.27;3.08;;;8.60;85.70;;;;;;5069204;28;20056;-80
2023/12/10 02:38:49;;;;;;;19.25;2.70;;;8.60;85.80;;;;;;5067121;28;20052;-80
2023/12/10 02:41:16;;;;;;;17.07;3.00;;;8.60;85.90;;;;;;5067232;28;20045;-80
2023/12/10 02:43:45;;;;;;;23.52;3.42;;;8.60;86.20;;;;;;5067291;28;20294;-80
2023/12/10 02:46:12;;;;;;;22.73;3.35;;;8.60;86.40;;;;;;5067407;28;20069;-80
2023/12/10 02:48:38;;;;;;;18.75;2.90;;;8.60;86.40;;;;;;5068529;28;20056;-80
2023/12/10 02:51:06;;;;;;;17.55;2.92;;;8.50;86.50;;;;;;5069359;28;20152;-80
2023/12/10 02:53:33;;;;;;;17.77;3.00;;;8.50;86.80;;;;;;5068695;28;20057;-80
2023/12/10 02:56:00;;;;;;;18.77;2.65;;;8.50;86.80;;;;;;5068906;28;20784;-81
2023/12/10 02:58:30;;;;;;;15.57;2.55;;;8.50;86.80;;;;;;5067754;28;20053;-80
2023/12/10 03:00:59;;;;;;;19.77;2.85;;;8.50;86.80;;;;;;5068664;28;20051;-81
2023/12/10 03:03:26;;;;;;;18.67;2.25;;;8.50;87.00;;;;;;5066966;28;20195;-80
2023/12/10 03:05:52;;;;;;;17.97;3.03;;;8.50;87.00;;;;;;5068217;28;20053;-80
2023/12/10 03:08:19;;;;;;;14.27;2.08;;;8.50;87.00;;;;;;5067693;28;20282;-80
2023/12/10 03:10:46;;;;;;;17.25;2.33;;;8.50;86.90;;;;;;5066478;28;20528;-80
2023/12/10 03:13:13;;;;;;;19.17;3.03;;;8.40;87.00;;;;;;5068313;28;20049;-80
2023/12/10 03:15:40;;;;;;;20.80;3.15;;;8.50;87.30;;;;;;5068461;28;20079;-80
2023/12/10 03:18:09;;;;;;;20.53;3.37;;;8.50;87.00;;;;;;5067401;28;20498;-80
2023/12/10 03:20:36;;;;;;;16.60;2.70;;;8.50;87.10;;;;;;5067813;28;20252;-80
2023/12/10 03:23:03;;;;;;;14.93;1.88;;;8.50;86.90;;;;;;5068373;28;20532;-80
2023/12/10 03:25:30;;;;;;;17.85;2.80;;;8.40;87.20;;;;;;5066848;28;20049;-80
2023/12/10 03:27:57;;;;;;;16.98;2.20;;;8.40;87.30;;;;;;5066900;28;20057;-80
2023/12/10 03:30:23;;;;;;;18.70;2.47;;;8.50;87.10;;;;;;5066666;28;20049;-79
2023/12/10 03:32:51;;;;;;;18.73;2.50;;;8.50;87.40;;;;;;5066462;28;20288;-80
2023/12/10 03:35:19;;;;;;;17.15;2.67;;;8.40;87.70;;;;;;5066712;28;20147;-79
2023/12/10 03:37:46;;;;;;;14.75;2.65;;;8.40;87.80;;;;;;5066684;28;20064;-79
2023/12/10 03:40:13;;;;;;;19.15;2.92;;;8.40;87.90;;;;;;5066096;28;20045;-80
2023/12/10 03:42:40;;;;;;;16.07;2.00;;;8.40;88.10;;;;;;5066511;28;20071;-79
2023/12/10 03:45:08;;;;;;;10.77;1.77;;;8.40;88.00;;;;;;5068043;28;20252;-79
2023/12/10 03:47:35;;;;;;;14.05;1.92;;;8.30;88.30;;;;;;5066581;28;20056;-79
2023/12/10 03:50:02;;;;;;;16.95;1.95;;;8.30;88.70;;;;;;5065674;28;20407;-79
2023/12/10 03:52:30;;;;;;;14.20;2.20;;;8.30;88.90;;;;;;5067659;28;20067;-79
2023/12/10 03:54:57;;;;;;;10.80;1.63;;;8.30;88.70;;;;;;5066315;28;20037;-79
2023/12/10 03:57:24;;;;;;;13.43;2.17;;;8.30;88.90;;;;;;5066065;28;20258;-79
2023/12/10 03:59:51;;;;;;;13.70;1.80;;;8.30;89.00;;;;;;5051852;28;20594;-79
2023/12/10 04:02:18;;;;;;;12.60;2.17;;;8.30;89.10;;;;;;5047501;28;20160;-79
2023/12/10 04:04:44;;;;;;;8.88;1.70;;;8.30;89.20;;;;;;5047478;28;20136;-78
2023/12/10 04:07:11;;;;;;;10.63;1.93;;;8.40;89.20;;;;;;5045545;28;20052;-79
2023/12/10 04:09:40;;;;;;;8.68;1.30;;;8.30;89.20;;;;;;5062648;28;20264;-80
2023/12/10 04:12:07;;;;;;;10.07;1.70;;;8.30;89.40;;;;;;5046822;28;20045;-79
2023/12/10 04:14:34;;;;;;;11.27;2.03;;;8.30;89.60;;;;;;5045966;28;20061;-79
2023/12/10 04:17:01;;;;;;;11.82;1.77;;;8.30;89.70;;;;;;5044204;28;20517;-80
2023/12/10 04:19:29;;;;;;;13.07;1.93;;;8.40;89.70;;;;;;5044067;28;20244;-80
2023/12/10 04:21:56;;;;;;;11.43;2.00;;;8.40;89.70;;;;;;5045622;28;20328;-79
2023/12/10 04:24:23;;;;;;;12.57;2.20;;;8.40;89.70;;;;;;5044390;28;20041;-79
2023/12/10 04:26:51;;;;;;;8.18;1.58;;;8.40;89.80;;;;;;5046042;28;21270;-79
2023/12/10 04:29:18;;;;;;;9.25;1.88;;;8.50;89.70;;;;;;5044421;28;20285;-78
2023/12/10 04:31:45;;;;;;;10.27;1.90;;;8.40;89.80;;;;;;5044779;28;20398;-79
2023/12/10 04:34:12;;;;;;;12.18;1.55;;;8.40;89.90;;;;;;5046769;28;20363;-78
2023/12/10 04:36:39;;;;;;;10.93;1.92;;;8.50;89.90;;;;;;5045903;28;20057;-78
2023/12/10 04:39:08;;;;;;;13.27;2.00;;;8.50;89.80;;;;;;5046470;28;20053;-78
2023/12/10 04:41:35;;;;;;;13.70;2.20;;;8.50;90.00;;;;;;5047061;28;20049;-78
2023/12/10 04:44:04;;;;;;;9.30;1.60;;;8.50;90.00;;;;;;5045369;28;20432;-78
2023/12/10 04:46:30;;;;;;;11.73;2.10;;;8.50;90.10;;;;;;5045688;28;20283;-78
2023/12/10 04:48:57;;;;;;;14.75;2.58;;;8.50;90.00;;;;;;5045655;28;20045;-78
2023/12/10 04:51:25;;;;;;;19.65;2.60;;;8.50;90.00;;;;;;5045374;28;20045;-78
2023/12/10 04:53:52;;;;;;;17.73;3.05;;;8.50;90.00;;;;;;5045090;28;20077;-78
2023/12/10 04:56:20;;;;;;;11.63;1.80;;;8.60;90.20;;;;;;5047427;28;20131;-78
2023/12/10 04:58:47;;;;;;;13.80;2.17;;;8.60;90.20;;;;;;5051128;28;20249;-78
2023/12/10 05:01:17;;;;;;;8.27;1.90;;;8.50;90.30;;;;;;5065619;28;20132;-78
2023/12/10 05:03:44;;;;;;;11.15;1.70;;;8.60;90.30;;;;;;5065710;28;20069;-78
2023/12/10 05:06:10;;;;;;;14.05;2.03;;;8.60;90.40;;;;;;5066936;28;20057;-78
2023/12/10 05:08:40;;;;;;;11.40;1.30;;;8.60;90.40;;;;;;5065207;28;20136;-79
2023/12/10 05:11:07;;;;;;;11.50;1.65;;;8.60;90.40;;;;;;5065282;28;20283;-78
2023/12/10 05:13:34;;;;;;;12.20;1.88;;;8.60;90.50;;;;;;5065202;28;20149;-78
2023/12/10 05:16:01;;;;;;;10.05;1.55;;;8.60;90.50;;;;;;5066519;28;20049;-79
2023/12/10 05:18:29;;;;;;;11.07;1.58;;;8.60;90.70;;;;;;5066765;28;20111;-78
2023/12/10 05:20:56;;;;;;;9.33;1.80;;;8.60;90.80;;;;;;5066693;28;20056;-78
2023/12/10 05:23:23;;;;;;;12.32;2.17;;;8.60;90.60;;;;;;5064610;28;20356;-78
2023/12/10 05:25:50;;;;;;;11.45;1.95;;;8.60;90.50;;;;;;5065414;28;20053;-77
2023/12/10 05:28:17;;;;;;;7.93;1.55;;;8.60;90.60;;;;;;5066444;28;20677;-78
2023/12/10 05:30:44;;;;;;;11.50;2.42;;;8.60;90.60;;;;;;5067721;28;20060;-79
2023/12/10 05:33:10;;;;;;;9.57;1.80;;;8.60;90.50;;;;;;5085378;28;20076;-79
2023/12/10 05:35:39;;;;;;;9.88;1.58;;;8.60;90.80;;;;;;5068411;28;20267;-79
2023/12/10 05:38:09;;;;;;;10.27;1.92;;;8.70;90.70;;;;;;5085489;28;20049;-79
2023/12/10 05:40:36;;;;;;;10.85;1.60;;;8.60;90.90;;;;;;5051146;28;20049;-79
2023/12/10 05:43:03;;;;;;;8.52;1.70;;;8.60;91.00;;;;;;5068194;28;20147;-79
2023/12/10 05:45:29;;;;;;;8.30;1.30;;;8.60;91.00;;;;;;5068190;28;20049;-79
2023/12/10 05:47:56;;;;;;;7.35;1.45;;;8.60;91.10;;;;;;5068814;28;20257;-79
2023/12/10 05:50:23;;;;;;;8.18;1.33;;;8.70;91.00;;;;;;5069594;28;20049;-79
2023/12/10 05:52:52;;;;;;;10.15;1.70;;;8.70;91.00;;;;;;5069387;28;20049;-79
2023/12/10 05:55:19;;;;;;;11.85;1.75;;;8.70;91.10;;;;;;5067434;28;20694;-79
2023/12/10 05:57:46;;;;;;;12.17;2.50;;;8.70;91.20;;;;;;5068105;28;20534;-79
2023/12/10 06:00:14;;;;;;;13.90;2.78;;;8.70;91.40;;;;;;5069471;28;20282;-80
2023/12/10 06:02:41;;;;;;;9.65;1.65;;;8.70;91.30;;;;;;5067982;28;20064;-79
2023/12/10 06:05:08;;;;;;;12.07;2.03;;;8.70;91.30;;;;;;5068761;28;20079;-79
2023/12/10 06:07:35;;;;;;;12.35;1.65;;;8.80;91.30;;;;;;5068482;28;20053;-80
2023/12/10 06:10:04;;;;;;;12.10;1.27;;;8.80;91.30;;;;;;5068745;28;20053;-79
2023/12/10 06:12:32;;;;;;;10.32;2.40;;;8.80;91.20;;;;;;5070196;28;20721;-79
2023/12/10 06:14:59;;;;;;;12.52;2.58;;;8.80;91.30;;;;;;5068615;28;20136;-80
2023/12/10 06:17:26;;;;;;;13.75;2.60;;;8.80;91.30;;;;;;5068306;28;20045;-79
2023/12/10 06:19:53;;;;;;;13.32;2.53;;;8.80;91.40;;;;;;5067242;28;20041;-79
2023/12/10 06:22:20;;;;;;;15.83;2.60;;;8.80;91.30;;;;;;5067429;28;20540;-79
2023/12/10 06:24:46;;;;;;;14.45;3.47;;;8.80;91.20;;;;;;5067568;28;20280;-79
2023/12/10 06:27:15;;;;;;;19.05;3.53;;;8.80;91.10;;;;;;5084629;28;20148;-78
2023/12/10 06:29:42;;;;;;;16.45;3.33;;;8.80;91.20;;;;;;5068998;28;20041;-79
2023/12/10 06:32:08;;;;;;;12.18;2.60;;;8.80;91.20;;;;;;5068716;28;20049;-79
2023/12/10 06:34:35;;;;;;;13.20;2.53;;;8.80;91.20;;;;;;5067598;28;20057;-79
2023/12/10 06:37:02;;;;;;;14.70;2.65;;;8.90;91.20;;;;;;5068685;28;20282;-79
2023/12/10 06:39:29;;;;;;;18.38;3.33;;;8.80;91.10;;;;;;5067205;28;20053;-78
2023/12/10 06:41:56;;;;;;;14.52;2.80;;;8.80;91.20;;;;;;5067193;28;20049;-79
2023/12/10 06:44:24;;;;;;;10.00;1.88;;;8.80;91.20;;;;;;5067078;28;20131;-78
2023/12/10 06:46:52;;;;;;;13.07;2.97;;;8.80;91.30;;;;;;5067352;28;20041;-79
2023/12/10 06:49:19;;;;;;;20.80;3.92;;;8.80;91.30;;;;;;5083746;28;20284;-79
2023/12/10 06:51:46;;;;;;;18.42;3.95;;;8.80;91.40;;;;;;5069052;28;20045;-79
2023/12/10 06:54:13;;;;;;;12.80;2.40;;;8.80;91.40;;;;;;5067046;28;20060;-79
2023/12/10 06:56:40;;;;;;;19.75;4.13;;;8.80;91.40;;;;;;5069270;28;20124;-79
2023/12/10 06:59:07;;;;;;;14.93;2.70;;;8.80;91.40;;;;;;5057071;28;20055;-79
2023/12/10 07:01:39;;;;;;;14.23;2.30;;;8.80;91.40;;;;;;5047300;28;20256;-78
2023/12/10 07:04:06;;;;;;;15.43;2.53;;;8.80;91.50;;;;;;5048177;28;20117;-78
2023/12/10 07:06:33;;;;;;;14.95;3.08;;;8.80;91.30;;;;;;5047017;28;20054;-79
2023/12/10 07:09:00;;;;;;;17.13;3.30;;;8.80;91.30;;;;;;5048224;28;20060;-79
2023/12/10 07:11:27;;;;;;;15.80;2.93;;;8.70;91.50;;;;;;5047954;28;20133;-79
2023/12/10 07:13:54;;;;;;;9.52;1.50;;;8.70;91.50;;;;;;5047973;28;20291;-79
2023/12/10 07:16:21;;;;;;;11.90;2.88;;;8.60;91.50;;;;;;5047272;28;20054;-79
2023/12/10 07:18:49;;;;;;;15.95;3.05;;;8.60;91.60;;;;;;5046106;28;20529;-79
2023/12/10 07:21:16;;;;;;;10.20;2.65;;;8.60;91.70;;;;;;5046030;28;20060;-80
2023/12/10 07:23:51;;;;;;;11.80;2.53;;;8.60;91.50;;;;;;5051119;28;20211;-79
2023/12/10 07:26:22;;;;;;;13.43;2.30;;;8.60;91.50;;;;;;5046386;28;20245;-79
2023/12/10 07:28:50;;;;;;;10.20;2.25;;;8.60;91.70;;;;;;5065025;28;20053;-78
2023/12/10 07:31:18;;;;;;;10.25;2.17;;;8.60;91.70;;;;;;5059964;28;20213;-78
2023/12/10 07:33:45;;;;;;;12.68;2.25;;;8.60;91.80;;;;;;5066297;28;20057;-80
2023/12/10 07:36:14;;;;;;;14.93;2.13;;;8.50;91.90;;;;;;5064086;28;20534;-79
2023/12/10 07:38:41;;;;;;;15.13;2.72;;;8.50;92.00;;;;;;5081084;28;20295;-78
2023/12/10 07:41:08;;;;;;;10.45;2.40;;;8.50;92.10;;;;;;5064924;28;20162;-78
2023/12/10 07:43:35;;;;;;;14.82;2.63;;;8.50;92.00;;;;;;5064824;28;20522;-79
2023/12/10 07:46:03;;;;;;;11.70;2.63;;;8.50;92.10;;;;;;5065763;28;20053;-79
2023/12/10 07:48:30;;;;;;;13.23;2.77;;;8.50;92.10;;;;;;5066538;28;20099;-78
2023/12/10 07:50:58;;;;;;;12.43;2.10;;;8.50;92.00;;;;;;5063719;28;20248;-78
2023/12/10 07:53:28;;;;;;;12.52;2.38;;;8.50;92.00;;;;;;5064637;28;20053;-78
2023/12/10 07:55:55;;;;;;;10.75;1.42;;;8.50;91.90;;;;;;5063918;28;20045;-78
2023/12/10 07:58:22;;;;;;;8.38;1.73;;;8.50;92.00;;;;;;5064417;28;20057;-78
2023/12/10 08:00:50;;;;;;;11.40;2.50;;;8.50;92.00;;;;;;5064531;28;20350;-79
2023/12/10 08:03:18;;;;;;;13.82;2.35;;;8.60;91.90;;;;;;5066960;28;20345;-78
2023/12/10 08:05:45;;;;;;;16.27;2.50;;;8.60;91.60;;;;;;5065576;28;20041;-78
2023/12/10 08:08:12;;;;;;;10.57;2.03;;;8.60;91.50;;;;;;5065095;28;20074;-79
2023/12/10 08:10:41;;;;;;;13.30;1.88;;;8.60;91.40;;;;;;5064627;28;20060;-78
2023/12/10 08:13:08;;;;;;;14.17;2.23;;;8.60;91.40;;;;;;5066902;28;20191;-79
2023/12/10 08:15:35;;;;;;;12.30;2.80;;;8.60;91.30;;;;;;5066753;28;20267;-78
2023/12/10 08:18:02;;;;;;;14.88;2.42;;;8.60;91.00;;;;;;5065209;28;20634;-79
2023/12/10 08:20:29;;;;;;;8.93;1.17;;;8.60;90.60;;;;;;5065804;28;20060;-76
2023/12/10 08:22:56;;;;;;;15.75;2.33;;;8.60;90.30;;;;;;5066172;28;20049;-78
2023/12/10 08:25:24;;;;;;;14.13;2.23;;;8.60;90.30;;;;;;5066965;28;20055;-78
2023/12/10 08:27:52;;;;;;;12.35;2.17;;;8.60;90.30;;;;;;5065592;28;20372;-78
2023/12/10 08:30:19;;;;;;;11.70;1.63;;;8.60;90.20;;;;;;5065611;28;20128;-78
2023/12/10 08:32:47;;;;;;;11.48;1.65;;;8.60;90.20;;;;;;5064941;28;20096;-79
2023/12/10 08:35:14;;;;;;;9.07;1.67;;;8.60;90.10;;;;;;5066411;28;20111;-78
2023/12/10 08:37:41;;;;;;;10.50;2.00;;;8.60;90.00;;;;;;5067280;28;20056;-78
2023/12/10 08:40:09;;;;;;;9.48;2.25;;;8.60;89.70;;;;;;5065540;28;20245;-78
2023/12/10 08:42:36;;;;;;;7.70;1.30;;;8.60;89.60;;;;;;5065296;28;20053;-77
2023/12/10 08:45:05;;;;;;;11.70;1.67;;;8.60;89.50;;;;;;5063819;28;20041;-79
2023/12/10 08:47:32;;;;;;;15.50;2.83;;;8.60;89.30;;;;;;5065147;28;20094;-78
2023/12/10 08:49:59;;;;;;;13.93;1.90;;;8.70;89.00;;;;;;5066174;28;20208;-78
2023/12/10 08:52:26;;;;;;;8.57;1.63;;;8.70;89.00;;;;;;5064682;28;20708;-77
2023/12/10 08:54:52;;;;;;;14.02;2.38;;;8.80;89.10;;;;;;5065234;28;20602;-77
2023/12/10 08:57:21;;;;;;;17.05;2.53;;;8.80;89.00;;;;;;5063995;28;20060;-79
2023/12/10 08:59:48;;;;;;;15.15;2.67;;;8.80;89.00;;;;;;5063801;28;20090;-78
2023/12/10 09:02:16;;;;;;;10.80;1.20;;;8.80;88.60;;;;;;5081365;28;20049;-77
2023/12/10 09:04:43;;;;;;;12.52;1.88;;;8.80;88.60;;;;;;5067323;28;20248;-78
2023/12/10 09:07:10;;;;;;;15.70;2.28;;;8.70;88.90;;;;;;5066986;28;20049;-77
2023/12/10 09:09:37;;;;;;;10.85;1.58;;;8.70;88.90;;;;;;5066896;28;20142;-78
2023/12/10 09:12:05;;;;;;;12.25;2.35;;;8.70;88.80;;;;;;5070449;28;20045;-78
2023/12/10 09:14:32;;;;;;;9.97;1.80;;;8.70;88.90;;;;;;5085895;28;20049;-77
2023/12/10 09:16:59;;;;;;;19.52;2.78;;;8.60;88.90;;;;;;5070334;28;20276;-77
2023/12/10 09:19:29;;;;;;;22.05;2.92;;;8.60;88.80;;;;;;5062431;28;20045;-78
2023/12/10 09:21:56;;;;;;;16.30;2.40;;;8.60;88.90;;;;;;5062012;28;20132;-77
2023/12/10 09:24:23;;;;;;;13.27;1.98;;;8.60;89.00;;;;;;5060925;28;20083;-77
2023/12/10 09:26:51;;;;;;;24.17;4.20;;;8.60;89.10;;;;;;5057876;28;20087;-77
2023/12/10 09:29:18;;;;;;;20.67;3.53;;;8.60;89.20;;;;;;5060569;28;20273;-78
2023/12/10 09:31:45;;;;;;;16.27;2.88;;;8.60;89.20;;;;;;5059111;28;20058;-78
2023/12/10 09:34:12;;;;;;;23.45;3.40;;;8.60;89.10;;;;;;5058534;28;20060;-78
2023/12/10 09:36:41;;;;;;;15.25;2.85;;;8.60;89.20;;;;;;5075649;28;20060;-78
2023/12/10 09:39:08;;;;;;;12.07;2.37;;;8.70;89.30;;;;;;5058475;28;20049;-78
2023/12/10 09:41:35;;;;;;;20.05;3.38;;;8.70;89.20;;;;;;5058705;28;20446;-78
2023/12/10 09:44:02;;;;;;;19.05;3.80;;;8.80;89.00;;;;;;5058138;28;20061;-76
2023/12/10 09:46:31;;;;;;;11.88;2.45;;;8.80;89.00;;;;;;5061251;28;20052;-78
2023/12/10 09:49:00;;;;;;;18.63;2.20;;;8.80;88.80;;;;;;5060805;28;20062;-78
2023/12/10 09:51:27;;;;;;;22.10;3.30;;;8.80;88.70;;;;;;5057576;28;20054;-78
2023/12/10 09:53:56;;;;;;;20.50;3.85;;;8.90;88.60;;;;;;5068306;28;20276;-77
2023/12/10 09:56:23;;;;;;;20.05;3.65;;;8.90;88.50;;;;;;5068015;28;20053;-78
2023/12/10 09:58:50;;;;;;;21.58;3.42;;;8.90;88.10;;;;;;5056634;28;20045;-77
2023/12/10 10:01:17;;;;;;;20.10;3.92;;;8.90;88.30;;;;;;5058376;28;20124;-78
2023/12/10 10:03:44;;;;;;;23.50;3.67;;;8.90;88.30;;;;;;5058439;28;20054;-78
2023/12/10 10:06:11;;;;;;;16.65;3.17;;;8.90;88.40;;;;;;5066282;28;20704;-76
2023/12/10 10:08:38;;;;;;;14.07;2.25;;;8.90;88.20;;;;;;5070013;28;20053;-79
2023/12/10 10:11:07;;;;;;;26.95;4.10;;;8.80;88.20;;;;;;5068074;28;20056;-78
2023/12/10 10:13:34;;;;;;;22.40;3.60;;;8.80;88.10;;;;;;5068017;28;20055;-77
2023/12/10 10:16:10;;;;;;;17.20;3.43;;;8.80;87.90;;;;;;5066941;28;20049;-78
2023/12/10 10:18:41;;;;;;;24.30;4.13;;;8.90;88.00;;;;;;5069699;28;20321;-79
2023/12/10 10:21:08;;;;;;;18.42;3.80;;;8.90;87.70;;;;;;5058263;28;20614;-78
2023/12/10 10:23:35;;;;;;;17.63;2.30;;;8.90;87.50;;;;;;5058159;28;20049;-78
2023/12/10 10:26:03;;;;;;;19.98;3.15;;;8.90;87.50;;;;;;5075396;28;20153;-78
2023/12/10 10:28:33;;;;;;;19.63;2.70;;;8.90;87.50;;;;;;5056228;28;20054;-79
2023/12/10 10:31:02;;;;;;;14.80;2.38;;;8.90;87.50;;;;;;5075592;28;21104;-80
2023/12/10 10:33:29;;;;;;;16.40;3.67;;;8.90;87.20;;;;;;5059294;28;20045;-79
2023/12/10 10:35:59;;;;;;;17.33;2.42;;;8.90;87.20;;;;;;5058967;28;20059;-79
2023/12/10 10:38:28;;;;;;;16.05;2.85;;;8.90;86.80;;;;;;5066106;28;20064;-79
2023/12/10 10:40:57;;;;;;;23.63;3.20;;;8.90;86.90;;;;;;5067068;28;21049;-79
2023/12/10 10:43:25;;;;;;;18.95;2.78;;;8.90;86.70;;;;;;5068737;28;20304;-79
2023/12/10 10:45:54;;;;;;;18.08;2.50;;;8.90;86.60;;;;;;5068981;28;20052;-79
2023/12/10 10:48:25;;;;;;;17.92;2.50;;;8.90;86.50;;;;;;5067850;28;20057;-79
2023/12/10 10:50:54;;;;;;;16.83;3.60;;;8.90;86.40;;;;;;5075212;28;20663;-78
2023/12/10 10:53:22;;;;;;;12.30;2.23;;;8.90;86.10;;;;;;5056138;28;20464;-79
2023/12/10 10:55:49;;;;;;;17.65;2.70;;;9.00;86.20;;;;;;5058627;28;20650;-79
2023/12/10 10:58:27;;;;;;;18.25;3.78;;;8.90;86.00;;;;;;5033190;28;20052;-79
2023/12/10 11:00:56;;;;;;;20.65;2.80;;;9.00;86.00;;;;;;5048421;28;20060;-78
2023/12/10 11:03:26;;;;;;;18.88;3.47;;;8.90;86.20;;;;;;5067266;28;20060;-78
2023/12/10 11:05:56;;;;;;;19.40;2.90;;;8.90;86.30;;;;;;5065983;28;20056;-78
2023/12/10 11:08:25;;;;;;;16.13;1.98;;;9.00;86.10;;;;;;5063258;28;20244;-78
2023/12/10 11:11:00;;;;;;;21.65;2.90;;;9.00;85.90;;;;;;5049660;28;20064;-78
2023/12/10 11:13:43;;;;;;;14.50;2.42;;;9.00;86.10;;;;;;5049597;28;20061;-77
2023/12/10 11:16:11;;;;;;;12.68;2.47;;;9.00;86.10;;;;;;5045858;28;20061;-78
2023/12/10 11:18:50;;;;;;;13.87;2.50;;;9.00;86.20;;;;;;5057263;28;20059;-78
2023/12/10 11:21:17;;;;;;;13.35;2.50;;;9.00;86.20;;;;;;5056624;28;20275;-78
2023/12/10 11:23:44;;;;;;;6.93;0.82;;;8.90;86.50;;;;;;5056876;28;20053;-80
2023/12/10 11:26:12;;;;;;;21.35;3.05;;;8.90;86.60;;;;;;5066815;28;20055;-73
2023/12/10 11:28:38;;;;;;;17.42;2.80;;;8.90;86.70;;;;;;5066975;28;20129;-73
2023/12/10 11:31:06;;;;;;;11.00;1.97;;;8.90;86.70;;;;;;5049149;28;20055;-73
2023/12/10 11:33:38;;;;;;;13.65;2.28;;;8.90;87.10;;;;;;5068658;28;20276;-75
2023/12/10 11:36:05;;;;;;;15.27;2.53;;;8.90;87.30;;;;;;5066217;28;20037;-73
2023/12/10 11:38:33;;;;;;;12.68;2.20;;;8.90;87.10;;;;;;5066481;28;20148;-73
2023/12/10 11:41:00;;;;;;;15.40;2.38;;;8.90;87.00;;;;;;5067312;28;20056;-72
2023/12/10 11:43:27;;;;;;;21.10;2.57;;;8.90;86.60;;;;;;5067302;28;20689;-73
2023/12/10 11:45:54;;;;;;;17.10;2.50;;;8.90;86.60;;;;;;5056276;28;20768;-72
2023/12/10 11:48:21;;;;;;;18.80;3.47;;;8.90;86.20;;;;;;5051839;28;20081;-73
2023/12/10 11:50:51;;;;;;;21.05;2.85;;;8.90;86.00;;;;;;5047851;28;20073;-73
2023/12/10 11:53:19;;;;;;;24.98;3.13;;;9.00;85.60;;;;;;5066033;28;20060;-73
2023/12/10 11:55:48;;;;;;;18.37;2.53;;;9.00;85.70;;;;;;5067828;28;20059;-73
2023/12/10 11:58:24;;;;;;;22.85;3.45;;;9.00;85.50;;;;;;5067682;28;20601;-73
2023/12/10 12:00:58;;;;;;;12.90;2.25;;;9.00;85.30;;;;;;5073264;28;20059;-72
2023/12/10 12:03:25;;;;;;;16.83;2.58;;;9.00;85.00;;;;;;5064514;28;20064;-73
2023/12/10 12:05:54;;;;;;;22.13;3.40;;;9.00;85.10;;;;;;5067177;28;20049;-73
2023/12/10 12:08:24;;;;;;;16.30;2.70;;;9.00;85.30;;;;;;5067189;28;20079;-73
2023/12/10 12:10:52;;;;;;;13.93;2.10;;;9.00;85.50;;;;;;5066731;28;20669;-73
2023/12/10 12:13:19;;;;;;;14.88;2.58;;;9.00;85.40;;;;;;5066993;28;20127;-73
2023/12/10 12:15:46;;;;;;;16.92;2.75;;;9.00;85.40;;;;;;5065785;28;20045;-73
2023/12/10 12:18:13;;;;;;;22.70;3.58;;;9.00;85.50;;;;;;5065977;28;20073;-73
2023/12/10 12:20:40;;;;;;;16.67;2.33;;;9.00;84.80;;;;;;5065149;28;20052;-73
2023/12/10 12:23:09;;;;;;;11.48;1.77;;;9.00;84.70;;;;;;5066054;28;20280;-73
2023/12/10 12:25:37;;;;;;;12.65;2.15;;;9.00;84.70;;;;;;5066569;28;20699;-75
2023/12/10 12:28:06;;;;;;;16.52;2.58;;;9.00;84.10;;;;;;5062447;28;20072;-73
2023/12/10 12:30:34;;;;;;;14.35;2.00;;;9.00;83.20;;;;;;5064605;28;20053;-72
2023/12/10 12:33:01;;;;;;;13.27;2.40;;;9.00;83.20;;;;;;5066003;28;20126;-73
2023/12/10 12:35:27;;;;;;;14.40;2.03;;;9.00;83.00;;;;;;5055999;28;20280;-73
2023/12/10 12:37:55;;;;;;;15.25;1.92;;;9.00;82.70;;;;;;5053577;28;20049;-72
2023/12/10 12:40:23;;;;;;;11.23;1.88;;;9.00;82.90;;;;;;5053567;28;20053;-73
2023/12/10 12:42:50;;;;;;;18.05;2.13;;;9.00;82.20;;;;;;5038660;28;20041;-73
2023/12/10 12:45:18;;;;;;;13.10;2.07;;;9.10;81.60;;;;;;5054738;28;20132;-72
2023/12/10 12:47:45;;;;;;;11.23;1.90;;;9.10;81.40;;;;;;5055646;28;20967;-72
2023/12/10 12:50:12;;;;;;;13.77;2.75;;;9.10;81.20;;;;;;5054970;28;20056;-73